地図

経路データ

SID SEASON NUMBER BASIN SUBBASIN NAME ISO_TIME NATURE LAT LON WMO_WIND WMO_PRES WMO_AGENCY TRACK_TYPE DIST2LAND LANDFALL IFLAG USA_AGENCY USA_ATCF_ID USA_LAT USA_LON USA_RECORD USA_STATUS USA_WIND USA_PRES USA_SSHS USA_R34_NE USA_R34_SE USA_R34_SW USA_R34_NW USA_R50_NE USA_R50_SE USA_R50_SW USA_R50_NW USA_R64_NE USA_R64_SE USA_R64_SW USA_R64_NW USA_POCI USA_ROCI USA_RMW USA_EYE TOKYO_LAT TOKYO_LON TOKYO_GRADE TOKYO_WIND TOKYO_PRES TOKYO_R50_DIR TOKYO_R50_LONG TOKYO_R50_SHORT TOKYO_R30_DIR TOKYO_R30_LONG TOKYO_R30_SHORT TOKYO_LAND CMA_LAT CMA_LON CMA_CAT CMA_WIND CMA_PRES HKO_LAT HKO_LON HKO_CAT HKO_WIND HKO_PRES NEWDELHI_LAT NEWDELHI_LON NEWDELHI_GRADE NEWDELHI_WIND NEWDELHI_PRES NEWDELHI_CI NEWDELHI_DP NEWDELHI_POCI REUNION_LAT REUNION_LON REUNION_TYPE REUNION_WIND REUNION_PRES REUNION_TNUM REUNION_CI REUNION_RMW REUNION_R34_NE REUNION_R34_SE REUNION_R34_SW REUNION_R34_NW REUNION_R50_NE REUNION_R50_SE REUNION_R50_SW REUNION_R50_NW REUNION_R64_NE REUNION_R64_SE REUNION_R64_SW REUNION_R64_NW BOM_LAT BOM_LON BOM_TYPE BOM_WIND BOM_PRES BOM_TNUM BOM_CI BOM_RMW BOM_R34_NE BOM_R34_SE BOM_R34_SW BOM_R34_NW BOM_R50_NE BOM_R50_SE BOM_R50_SW BOM_R50_NW BOM_R64_NE BOM_R64_SE BOM_R64_SW BOM_R64_NW BOM_ROCI BOM_POCI BOM_EYE BOM_POS_METHOD BOM_PRES_METHOD NADI_LAT NADI_LON NADI_CAT NADI_WIND NADI_PRES WELLINGTON_LAT WELLINGTON_LON WELLINGTON_WIND WELLINGTON_PRES DS824_LAT DS824_LON DS824_STAGE DS824_WIND DS824_PRES TD9636_LAT TD9636_LON TD9636_STAGE TD9636_WIND TD9636_PRES TD9635_LAT TD9635_LON TD9635_WIND TD9635_PRES TD9635_ROCI NEUMANN_LAT NEUMANN_LON NEUMANN_CLASS NEUMANN_WIND NEUMANN_PRES MLC_LAT MLC_LON MLC_CLASS MLC_WIND MLC_PRES USA_GUST BOM_GUST BOM_GUST_PER REUNION_GUST REUNION_GUST_PER USA_SEAHGT USA_SEARAD_NE USA_SEARAD_SE USA_SEARAD_SW USA_SEARAD_NW STORM_SPEED STORM_DIR
1948154S25153 1948 34 SP EA NOT_NAMED 1948-06-01 12:00:00 NR -25.2000 152.900 main 10 10 __________O___ -1 -25.2000 152.900 7 1 113
1948154S25153 1948 34 SP EA NOT_NAMED 1948-06-01 15:00:00 NR -25.2156 152.938 main 10 0 __________P___ -1 -25.2156 152.938 7 1 116
1948154S25153 1948 34 SP EA NOT_NAMED 1948-06-01 18:00:00 NR -25.2350 152.980 main 0 0 __________P___ -1 -25.2350 152.980 7 1 119
1948154S25153 1948 34 SP EA NOT_NAMED 1948-06-01 21:00:00 NR -25.2619 153.033 main 10 0 __________P___ -1 -25.2619 153.033 7 1 120
1948154S25153 1948 34 SP EA NOT_NAMED 1948-06-02 00:00:00 NR -25.3000 153.100 main 0 0 __________O___ -1 -25.3000 153.100 7 2 124
1948154S25153 1948 34 SP EA NOT_NAMED 1948-06-02 03:00:00 NR -25.3525 153.186 main 0 0 __________P___ -1 -25.3525 153.186 7 2 126
1948154S25153 1948 34 SP EA NOT_NAMED 1948-06-02 06:00:00 NR -25.4200 153.285 main 10 10 __________P___ -1 -25.4200 153.285 7 2 129
1948154S25153 1948 34 SP EA NOT_NAMED 1948-06-02 09:00:00 NR -25.5025 153.392 main 20 20 __________P___ -1 -25.5025 153.392 7 3 133
1948154S25153 1948 34 SP EA NOT_NAMED 1948-06-02 12:00:00 NR -25.6000 153.500 main 32 32 __________O___ -1 -25.6000 153.500 7 3 136
1948154S25153 1948 34 SP EA NOT_NAMED 1948-06-02 15:00:00 NR -25.7025 153.600 main 45 45 __________P___ -1 -25.7025 153.600 7 3 140
1948154S25153 1948 34 SP EA NOT_NAMED 1948-06-02 18:00:00 NR -25.8200 153.700 main 60 59 __________P___ -1 -25.8200 153.700 7 3 144
1948154S25153 1948 34 SP EA NOT_NAMED 1948-06-02 21:00:00 NR -25.9525 153.800 main 69 69 __________P___ -1 -25.9525 153.800 7 3 147
1948154S25153 1948 34 SP EA NOT_NAMED 1948-06-03 00:00:00 NR -26.1000 153.900 main 79 79 __________O___ -1 -26.1000 153.900 7 4 147
1948154S25153 1948 34 SP EA NOT_NAMED 1948-06-03 03:00:00 NR -26.2525 154.016 main 89 89 __________P___ -1 -26.2525 154.016 7 4 147
1948154S25153 1948 34 SP EA NOT_NAMED 1948-06-03 06:00:00 NR -26.4201 154.130 main 99 99 __________P___ -1 -26.4201 154.130 7 4 152
1948154S25153 1948 34 SP EA NOT_NAMED 1948-06-03 09:00:00 NR -26.6025 154.229 main 109 109 __________P___ -1 -26.6025 154.229 7 4 158
1948154S25153 1948 34 SP EA NOT_NAMED 1948-06-03 12:00:00 NR -26.8000 154.300 main 113 109 __________O___ -1 -26.8000 154.300 7 4 167
1948154S25153 1948 34 SP EA NOT_NAMED 1948-06-03 15:00:00 NR -27.0268 154.341 main 109 108 __________P___ -1 -27.0268 154.341 7 5 175
1948154S25153 1948 34 SP EA NOT_NAMED 1948-06-03 18:00:00 NR -27.2649 154.353 main 110 98 __________P___ -1 -27.2649 154.353 7 5 0
1948154S25153 1948 34 SP EA NOT_NAMED 1948-06-03 21:00:00 NR -27.4956 154.338 main 98 88 __________P___ -1 -27.4956 154.338 7 4 185
1948154S25153 1948 34 SP EA NOT_NAMED 1948-06-04 00:00:00 NR -27.7000 154.300 main 88 76 __________O___ -1 -27.7000 154.300 7 4 191
1948154S25153 1948 34 SP EA NOT_NAMED 1948-06-04 03:00:00 NR -27.8618 154.263 main 76 62 __________P___ -1 -27.8618 154.263 7 3 197
1948154S25153 1948 34 SP EA NOT_NAMED 1948-06-04 06:00:00 NR -27.9949 154.202 main 62 50 __________P___ -1 -27.9949 154.202 7 3 208
1948154S25153 1948 34 SP EA NOT_NAMED 1948-06-04 09:00:00 NR -28.1055 154.116 main 50 39 __________P___ -1 -28.1055 154.116 7 3 221
1948154S25153 1948 34 SP EA NOT_NAMED 1948-06-04 12:00:00 NR -28.2000 154.000 main 39 22 __________O___ -1 -28.2000 154.000 7 4 241
1948154S25153 1948 34 SP EA NOT_NAMED 1948-06-04 15:00:00 NR -28.2814 153.761 main 22 0 __________P___ -1 -28.2814 153.761 7 5 251
1948154S25153 1948 34 SP EA NOT_NAMED 1948-06-04 18:00:00 NR -28.3499 153.508 main 0 0 __________P___ -1 -28.3499 153.508 7 4 250
1948154S25153 1948 34 SP EA NOT_NAMED 1948-06-04 21:00:00 NR -28.4184 153.327 main 0 0 __________P___ -1 -28.4184 153.327 7 2 230
1948154S25153 1948 34 SP EA NOT_NAMED 1948-06-05 00:00:00 NR -28.5000 153.300 main 0 0 __________O___ -1 -28.5000 153.300 7 3 131
1948154S25153 1948 34 SP EA NOT_NAMED 1948-06-05 03:00:00 NR -28.5996 153.567 main 0 0 __________P___ -1 -28.5996 153.567 7 6 110
1948154S25153 1948 34 SP EA NOT_NAMED 1948-06-05 06:00:00 NR -28.7145 153.987 main 38 38 __________P___ -1 -28.7145 153.987 7 8 107
1948154S25153 1948 34 SP EA NOT_NAMED 1948-06-05 09:00:00 NR -28.8468 154.463 main 87 87 __________P___ -1 -28.8468 154.463 7 8 110
1948154S25153 1948 34 SP EA NOT_NAMED 1948-06-05 12:00:00 NR -29.0000 154.900 main 126 126 __________O___ -1 -29.0000 154.900 7 7 114
1948154S25153 1948 34 SP EA NOT_NAMED 1948-06-05 15:00:00 NR -29.1251 155.170 main 157 157 __________P___ -1 -29.1251 155.170 7 5 123
1948154S25153 1948 34 SP EA NOT_NAMED 1948-06-05 18:00:00 NR -29.2794 155.384 main 180 180 __________P___ -1 -29.2794 155.384 7 5 138
1948154S25153 1948 34 SP EA NOT_NAMED 1948-06-05 21:00:00 NR -29.4940 155.555 main 205 205 __________P___ -1 -29.4940 155.555 7 6 152
1948154S25153 1948 34 SP EA NOT_NAMED 1948-06-06 00:00:00 NR -29.8000 155.700 main 226 226 __________O___ -1 -29.8000 155.700 7 8 159
1948154S25153 1948 34 SP EA NOT_NAMED 1948-06-06 03:00:00 NR -30.2316 155.882 main 252 252 __________P___ -1 -30.2316 155.882 7 10 163
1948154S25153 1948 34 SP EA NOT_NAMED 1948-06-06 06:00:00 NR -30.7525 156.038 main 277 277 __________P___ -1 -30.7525 156.038 7 11 168
1948154S25153 1948 34 SP EA NOT_NAMED 1948-06-06 09:00:00 NR -31.3222 156.150 main 295 295 __________P___ -1 -31.3222 156.150 7 12 173
1948154S25153 1948 34 SP EA NOT_NAMED 1948-06-06 12:00:00 NR -31.9000 156.200 main 306 306 __________O___ -1 -31.9000 156.200 7 11 179
1948154S25153 1948 34 SP EA NOT_NAMED 1948-06-06 15:00:00 NR -32.4535 156.174 main 328 325 __________P___ -1 -32.4535 156.174 7 11 185
1948154S25153 1948 34 SP EA NOT_NAMED 1948-06-06 18:00:00 NR -32.9826 156.086 main 336 336 __________P___ -1 -32.9826 156.086 7 11 190
1948154S25153 1948 34 SP EA NOT_NAMED 1948-06-06 21:00:00 NR -33.4954 155.954 main 348 339 __________P___ -1 -33.4954 155.954 7 10 193
1948154S25153 1948 34 SP EA NOT_NAMED 1948-06-07 00:00:00 NR -34.0000 155.800 main 354 __________O___ -1 -34.0000 155.800 7 10 194

デジタル台風データ・検索

IBTrACS Databaseについて

本データベースは、米国NOAAが公開する1842年以降の世界の熱帯低気圧のベストトラックデータアーカイブInternational Best Track Archive for Climate Stewardship (IBTrACS)を、ウェブで閲覧しやすい形式に変換したものです。

最終更新日:2021-11-26